sensor_id;sensor_type;location;lat;lon;timestamp;P1;durP1;ratioP1;P2;durP2;ratioP2
68234;SDS011;55052;52.056;5.296;2022-09-03T00:01:36;5.63;;;2.10;;
68234;SDS011;55052;52.056;5.296;2022-09-03T00:04:15;4.60;;;2.42;;
68234;SDS011;55052;52.056;5.296;2022-09-03T00:07:03;4.43;;;2.50;;
68234;SDS011;55052;52.056;5.296;2022-09-03T00:09:45;6.68;;;2.70;;
68234;SDS011;55052;52.056;5.296;2022-09-03T00:17:16;4.70;;;2.35;;
68234;SDS011;55052;52.056;5.296;2022-09-03T00:19:50;8.07;;;2.50;;
68234;SDS011;55052;52.056;5.296;2022-09-03T00:22:22;6.13;;;2.53;;
68234;SDS011;55052;52.056;5.296;2022-09-03T00:24:53;8.15;;;2.58;;
68234;SDS011;55052;52.056;5.296;2022-09-03T00:27:25;4.78;;;2.63;;
68234;SDS011;55052;52.056;5.296;2022-09-03T00:29:58;6.72;;;2.40;;
68234;SDS011;55052;52.056;5.296;2022-09-03T00:32:35;4.75;;;2.33;;
68234;SDS011;55052;52.056;5.296;2022-09-03T00:35:08;5.15;;;2.20;;
68234;SDS011;55052;52.056;5.296;2022-09-03T00:37:42;4.18;;;2.40;;
68234;SDS011;55052;52.056;5.296;2022-09-03T00:40:15;4.53;;;2.30;;
68234;SDS011;55052;52.056;5.296;2022-09-03T00:43:17;6.22;;;2.40;;
68234;SDS011;55052;52.056;5.296;2022-09-03T00:45:51;5.22;;;2.20;;
68234;SDS011;55052;52.056;5.296;2022-09-03T00:48:33;4.70;;;2.10;;
68234;SDS011;55052;52.056;5.296;2022-09-03T00:51:25;4.18;;;2.10;;
68234;SDS011;55052;52.056;5.296;2022-09-03T00:54:12;8.07;;;2.38;;
68234;SDS011;55052;52.056;5.296;2022-09-03T00:57:17;3.70;;;2.10;;
68234;SDS011;55052;52.056;5.296;2022-09-03T01:13:37;6.85;;;2.20;;
68234;SDS011;55052;52.056;5.296;2022-09-03T01:18:57;4.35;;;2.10;;
68234;SDS011;55052;52.056;5.296;2022-09-03T01:22:17;3.38;;;1.88;;
68234;SDS011;55052;52.056;5.296;2022-09-03T01:28:21;3.08;;;2.00;;
68234;SDS011;55052;52.056;5.296;2022-09-03T01:33:49;3.50;;;2.08;;
68234;SDS011;55052;52.056;5.296;2022-09-03T01:42:28;3.67;;;1.92;;
68234;SDS011;55052;52.056;5.296;2022-09-03T01:50:19;6.63;;;2.15;;
68234;SDS011;55052;52.056;5.296;2022-09-03T01:53:06;3.55;;;1.88;;
68234;SDS011;55052;52.056;5.296;2022-09-03T01:58:40;7.72;;;2.63;;
68234;SDS011;55052;52.056;5.296;2022-09-03T02:01:18;4.30;;;2.25;;
68234;SDS011;55052;52.056;5.296;2022-09-03T02:03:50;3.47;;;2.05;;
68234;SDS011;55052;52.056;5.296;2022-09-03T02:06:17;7.30;;;2.17;;
68234;SDS011;55052;52.056;5.296;2022-09-03T02:08:45;3.95;;;2.05;;
68234;SDS011;55052;52.056;5.296;2022-09-03T02:11:12;5.15;;;2.08;;
68234;SDS011;55052;52.056;5.296;2022-09-03T02:13:49;4.72;;;2.15;;
68234;SDS011;55052;52.056;5.296;2022-09-03T02:16:22;5.13;;;2.20;;
68234;SDS011;55052;52.056;5.296;2022-09-03T02:18:54;3.85;;;1.88;;
68234;SDS011;55052;52.056;5.296;2022-09-03T02:21:27;8.15;;;2.20;;
68234;SDS011;55052;52.056;5.296;2022-09-03T02:23:59;4.38;;;2.08;;
68234;SDS011;55052;52.056;5.296;2022-09-03T02:26:28;3.92;;;2.00;;
68234;SDS011;55052;52.056;5.296;2022-09-03T02:28:54;6.97;;;2.05;;
68234;SDS011;55052;52.056;5.296;2022-09-03T02:31:22;3.40;;;2.00;;
68234;SDS011;55052;52.056;5.296;2022-09-03T02:33:49;5.93;;;2.00;;
68234;SDS011;55052;52.056;5.296;2022-09-03T02:36:17;6.20;;;2.20;;
68234;SDS011;55052;52.056;5.296;2022-09-03T02:38:47;3.58;;;1.95;;
68234;SDS011;55052;52.056;5.296;2022-09-03T02:41:14;5.40;;;2.13;;
68234;SDS011;55052;52.056;5.296;2022-09-03T02:43:41;4.55;;;2.22;;
68234;SDS011;55052;52.056;5.296;2022-09-03T02:46:17;3.78;;;2.08;;
68234;SDS011;55052;52.056;5.296;2022-09-03T02:48:47;4.18;;;1.95;;
68234;SDS011;55052;52.056;5.296;2022-09-03T02:51:14;6.25;;;2.10;;
68234;SDS011;55052;52.056;5.296;2022-09-03T02:53:41;5.88;;;2.38;;
68234;SDS011;55052;52.056;5.296;2022-09-03T02:56:09;5.57;;;2.28;;
68234;SDS011;55052;52.056;5.296;2022-09-03T02:58:36;4.80;;;2.20;;
68234;SDS011;55052;52.056;5.296;2022-09-03T03:01:03;6.32;;;2.33;;
68234;SDS011;55052;52.056;5.296;2022-09-03T03:03:30;4.80;;;2.10;;
68234;SDS011;55052;52.056;5.296;2022-09-03T03:05:59;6.45;;;2.30;;
68234;SDS011;55052;52.056;5.296;2022-09-03T03:08:28;4.68;;;2.00;;
68234;SDS011;55052;52.056;5.296;2022-09-03T03:10:56;4.45;;;1.88;;
68234;SDS011;55052;52.056;5.296;2022-09-03T03:13:24;5.05;;;2.08;;
68234;SDS011;55052;52.056;5.296;2022-09-03T03:15:55;4.38;;;2.00;;
68234;SDS011;55052;52.056;5.296;2022-09-03T03:18:23;3.85;;;2.10;;
68234;SDS011;55052;52.056;5.296;2022-09-03T03:20:50;5.72;;;2.10;;
68234;SDS011;55052;52.056;5.296;2022-09-03T03:23:17;4.07;;;2.05;;
68234;SDS011;55052;52.056;5.296;2022-09-03T03:25:45;7.72;;;1.98;;
68234;SDS011;55052;52.056;5.296;2022-09-03T03:28:12;6.93;;;2.28;;
68234;SDS011;55052;52.056;5.296;2022-09-03T03:30:40;5.90;;;2.13;;
68234;SDS011;55052;52.056;5.296;2022-09-03T03:33:08;5.78;;;2.20;;
68234;SDS011;55052;52.056;5.296;2022-09-03T03:35:35;3.63;;;2.13;;
68234;SDS011;55052;52.056;5.296;2022-09-03T03:38:02;3.95;;;2.03;;
68234;SDS011;55052;52.056;5.296;2022-09-03T03:40:30;4.78;;;2.10;;
68234;SDS011;55052;52.056;5.296;2022-09-03T03:42:57;3.55;;;2.10;;
68234;SDS011;55052;52.056;5.296;2022-09-03T03:45:24;3.17;;;1.90;;
68234;SDS011;55052;52.056;5.296;2022-09-03T03:47:51;3.95;;;2.00;;
68234;SDS011;55052;52.056;5.296;2022-09-03T03:50:22;4.68;;;2.03;;
68234;SDS011;55052;52.056;5.296;2022-09-03T03:52:48;4.95;;;2.00;;
68234;SDS011;55052;52.056;5.296;2022-09-03T03:55:16;3.90;;;1.90;;
68234;SDS011;55052;52.056;5.296;2022-09-03T03:57:42;3.90;;;1.88;;
68234;SDS011;55052;52.056;5.296;2022-09-03T04:00:09;5.00;;;2.22;;
68234;SDS011;55052;52.056;5.296;2022-09-03T04:02:36;6.68;;;2.25;;
68234;SDS011;55052;52.056;5.296;2022-09-03T04:05:04;3.90;;;1.92;;
68234;SDS011;55052;52.056;5.296;2022-09-03T04:07:32;5.18;;;2.20;;
68234;SDS011;55052;52.056;5.296;2022-09-03T04:09:59;6.97;;;1.90;;
68234;SDS011;55052;52.056;5.296;2022-09-03T04:12:26;7.15;;;2.38;;
68234;SDS011;55052;52.056;5.296;2022-09-03T04:14:53;4.18;;;2.25;;
68234;SDS011;55052;52.056;5.296;2022-09-03T04:17:19;5.13;;;2.20;;
68234;SDS011;55052;52.056;5.296;2022-09-03T04:19:50;3.45;;;1.95;;
68234;SDS011;55052;52.056;5.296;2022-09-03T04:22:17;4.45;;;1.98;;
68234;SDS011;55052;52.056;5.296;2022-09-03T04:24:45;3.40;;;2.00;;
68234;SDS011;55052;52.056;5.296;2022-09-03T04:27:12;5.68;;;2.15;;
68234;SDS011;55052;52.056;5.296;2022-09-03T04:29:39;5.30;;;2.30;;
68234;SDS011;55052;52.056;5.296;2022-09-03T04:32:05;4.93;;;2.42;;
68234;SDS011;55052;52.056;5.296;2022-09-03T04:34:50;4.88;;;2.20;;
68234;SDS011;55052;52.056;5.296;2022-09-03T04:37:17;3.97;;;2.20;;
68234;SDS011;55052;52.056;5.296;2022-09-03T04:39:45;5.38;;;2.13;;
68234;SDS011;55052;52.056;5.296;2022-09-03T04:42:12;4.75;;;2.10;;
68234;SDS011;55052;52.056;5.296;2022-09-03T04:44:39;4.45;;;2.10;;
68234;SDS011;55052;52.056;5.296;2022-09-03T04:47:06;4.55;;;2.20;;
68234;SDS011;55052;52.056;5.296;2022-09-03T04:49:33;4.05;;;2.05;;
68234;SDS011;55052;52.056;5.296;2022-09-03T04:52:00;3.63;;;2.00;;
68234;SDS011;55052;52.056;5.296;2022-09-03T04:54:28;3.28;;;1.95;;
68234;SDS011;55052;52.056;5.296;2022-09-03T04:56:55;7.00;;;2.20;;
68234;SDS011;55052;52.056;5.296;2022-09-03T04:59:22;8.45;;;2.20;;
68234;SDS011;55052;52.056;5.296;2022-09-03T05:01:49;8.75;;;2.53;;
68234;SDS011;55052;52.056;5.296;2022-09-03T05:04:18;4.07;;;2.15;;
68234;SDS011;55052;52.056;5.296;2022-09-03T05:06:44;3.67;;;2.00;;
68234;SDS011;55052;52.056;5.296;2022-09-03T05:09:11;6.28;;;2.30;;
68234;SDS011;55052;52.056;5.296;2022-09-03T05:11:38;5.95;;;2.17;;
68234;SDS011;55052;52.056;5.296;2022-09-03T05:14:05;4.70;;;2.22;;
68234;SDS011;55052;52.056;5.296;2022-09-03T05:16:32;4.70;;;2.10;;
68234;SDS011;55052;52.056;5.296;2022-09-03T05:18:59;4.18;;;2.17;;
68234;SDS011;55052;52.056;5.296;2022-09-03T05:21:26;8.82;;;2.60;;
68234;SDS011;55052;52.056;5.296;2022-09-03T05:23:55;5.55;;;2.13;;
68234;SDS011;55052;52.056;5.296;2022-09-03T05:26:23;5.47;;;2.30;;
68234;SDS011;55052;52.056;5.296;2022-09-03T05:28:55;5.25;;;2.30;;
68234;SDS011;55052;52.056;5.296;2022-09-03T05:31:24;5.53;;;2.10;;
68234;SDS011;55052;52.056;5.296;2022-09-03T05:33:54;4.70;;;2.10;;
68234;SDS011;55052;52.056;5.296;2022-09-03T05:36:30;3.90;;;1.92;;
68234;SDS011;55052;52.056;5.296;2022-09-03T05:38:59;6.50;;;2.40;;
68234;SDS011;55052;52.056;5.296;2022-09-03T05:41:26;5.43;;;2.50;;
68234;SDS011;55052;52.056;5.296;2022-09-03T05:43:54;4.78;;;2.05;;
68234;SDS011;55052;52.056;5.296;2022-09-03T05:46:25;7.68;;;2.40;;
68234;SDS011;55052;52.056;5.296;2022-09-03T05:48:58;5.85;;;2.70;;
68234;SDS011;55052;52.056;5.296;2022-09-03T05:51:29;7.15;;;2.95;;
68234;SDS011;55052;52.056;5.296;2022-09-03T05:53:56;5.15;;;2.92;;
68234;SDS011;55052;52.056;5.296;2022-09-03T05:56:24;6.20;;;3.00;;
68234;SDS011;55052;52.056;5.296;2022-09-03T05:58:53;7.93;;;3.13;;
68234;SDS011;55052;52.056;5.296;2022-09-03T06:01:23;8.05;;;3.30;;
68234;SDS011;55052;52.056;5.296;2022-09-03T06:03:55;7.00;;;3.25;;
68234;SDS011;55052;52.056;5.296;2022-09-03T06:06:27;6.85;;;2.90;;
68234;SDS011;55052;52.056;5.296;2022-09-03T06:08:57;9.65;;;3.33;;
68234;SDS011;55052;52.056;5.296;2022-09-03T06:11:25;9.07;;;3.47;;
68234;SDS011;55052;52.056;5.296;2022-09-03T06:16:25;5.97;;;3.20;;
68234;SDS011;55052;52.056;5.296;2022-09-03T06:18:57;10.77;;;3.65;;
68234;SDS011;55052;52.056;5.296;2022-09-03T06:21:27;7.40;;;3.08;;
68234;SDS011;55052;52.056;5.296;2022-09-03T06:23:55;5.68;;;2.90;;
68234;SDS011;55052;52.056;5.296;2022-09-03T06:26:25;8.95;;;2.95;;
68234;SDS011;55052;52.056;5.296;2022-09-03T06:28:54;5.57;;;2.53;;
68234;SDS011;55052;52.056;5.296;2022-09-03T06:31:22;6.13;;;2.97;;
68234;SDS011;55052;52.056;5.296;2022-09-03T06:33:49;12.05;;;3.00;;
68234;SDS011;55052;52.056;5.296;2022-09-03T06:36:18;7.70;;;2.80;;
68234;SDS011;55052;52.056;5.296;2022-09-03T06:38:46;6.20;;;2.70;;
68234;SDS011;55052;52.056;5.296;2022-09-03T06:41:14;8.30;;;2.70;;
68234;SDS011;55052;52.056;5.296;2022-09-03T06:43:54;6.07;;;2.70;;
68234;SDS011;55052;52.056;5.296;2022-09-03T06:46:28;5.22;;;2.47;;
68234;SDS011;55052;52.056;5.296;2022-09-03T06:48:56;7.32;;;2.58;;
68234;SDS011;55052;52.056;5.296;2022-09-03T06:51:24;6.32;;;2.30;;
68234;SDS011;55052;52.056;5.296;2022-09-03T06:53:54;5.18;;;2.30;;
68234;SDS011;55052;52.056;5.296;2022-09-03T06:56:34;4.43;;;1.90;;
68234;SDS011;55052;52.056;5.296;2022-09-03T06:59:07;4.85;;;2.40;;
68234;SDS011;55052;52.056;5.296;2022-09-03T07:01:35;5.20;;;2.08;;
68234;SDS011;55052;52.056;5.296;2022-09-03T07:04:09;3.95;;;2.00;;
68234;SDS011;55052;52.056;5.296;2022-09-03T07:06:38;5.40;;;1.95;;
68234;SDS011;55052;52.056;5.296;2022-09-03T07:09:05;7.88;;;2.10;;
68234;SDS011;55052;52.056;5.296;2022-09-03T07:11:33;5.05;;;2.10;;
68234;SDS011;55052;52.056;5.296;2022-09-03T07:14:02;3.63;;;1.75;;
68234;SDS011;55052;52.056;5.296;2022-09-03T07:16:33;4.45;;;1.80;;
68234;SDS011;55052;52.056;5.296;2022-09-03T07:19:02;4.47;;;1.88;;
68234;SDS011;55052;52.056;5.296;2022-09-03T07:21:30;4.60;;;1.60;;
68234;SDS011;55052;52.056;5.296;2022-09-03T07:24:13;4.75;;;1.85;;
68234;SDS011;55052;52.056;5.296;2022-09-03T07:26:40;4.03;;;2.10;;
68234;SDS011;55052;52.056;5.296;2022-09-03T07:29:12;3.80;;;1.55;;
68234;SDS011;55052;52.056;5.296;2022-09-03T07:31:41;4.43;;;1.63;;
68234;SDS011;55052;52.056;5.296;2022-09-03T07:34:09;2.72;;;1.60;;
68234;SDS011;55052;52.056;5.296;2022-09-03T07:36:38;4.95;;;1.67;;
68234;SDS011;55052;52.056;5.296;2022-09-03T07:39:08;3.88;;;1.55;;
68234;SDS011;55052;52.056;5.296;2022-09-03T07:41:36;5.97;;;1.85;;
68234;SDS011;55052;52.056;5.296;2022-09-03T07:44:04;3.28;;;1.40;;
68234;SDS011;55052;52.056;5.296;2022-09-03T07:46:32;4.20;;;1.73;;
68234;SDS011;55052;52.056;5.296;2022-09-03T07:49:00;5.40;;;1.80;;
68234;SDS011;55052;52.056;5.296;2022-09-03T07:51:34;3.90;;;1.60;;
68234;SDS011;55052;52.056;5.296;2022-09-03T07:54:03;6.20;;;1.70;;
68234;SDS011;55052;52.056;5.296;2022-09-03T07:56:33;3.67;;;1.67;;
68234;SDS011;55052;52.056;5.296;2022-09-03T07:59:01;4.53;;;1.50;;
68234;SDS011;55052;52.056;5.296;2022-09-03T08:01:29;4.93;;;1.50;;
68234;SDS011;55052;52.056;5.296;2022-09-03T08:03:57;2.93;;;1.60;;
68234;SDS011;55052;52.056;5.296;2022-09-03T08:06:26;3.38;;;1.40;;
68234;SDS011;55052;52.056;5.296;2022-09-03T08:08:58;4.53;;;1.60;;
68234;SDS011;55052;52.056;5.296;2022-09-03T08:11:41;3.88;;;1.60;;
68234;SDS011;55052;52.056;5.296;2022-09-03T08:14:09;3.30;;;1.60;;
68234;SDS011;55052;52.056;5.296;2022-09-03T08:16:38;5.70;;;2.00;;
68234;SDS011;55052;52.056;5.296;2022-09-03T08:19:07;2.15;;;1.40;;
68234;SDS011;55052;52.056;5.296;2022-09-03T08:21:34;5.05;;;1.70;;
68234;SDS011;55052;52.056;5.296;2022-09-03T08:24:01;6.22;;;1.40;;
68234;SDS011;55052;52.056;5.296;2022-09-03T08:26:29;4.78;;;1.77;;
68234;SDS011;55052;52.056;5.296;2022-09-03T08:28:58;3.53;;;1.70;;
68234;SDS011;55052;52.056;5.296;2022-09-03T08:31:25;2.78;;;1.48;;
68234;SDS011;55052;52.056;5.296;2022-09-03T08:33:54;4.88;;;1.65;;
68234;SDS011;55052;52.056;5.296;2022-09-03T08:36:25;5.80;;;1.60;;
68234;SDS011;55052;52.056;5.296;2022-09-03T08:38:55;4.88;;;1.52;;
68234;SDS011;55052;52.056;5.296;2022-09-03T08:47:10;4.60;;;1.70;;
68234;SDS011;55052;52.056;5.296;2022-09-03T08:52:28;5.30;;;1.77;;
68234;SDS011;55052;52.056;5.296;2022-09-03T08:55:28;3.50;;;1.50;;
68234;SDS011;55052;52.056;5.296;2022-09-03T08:58:09;4.15;;;1.67;;
68234;SDS011;55052;52.056;5.296;2022-09-03T09:06:10;3.75;;;1.50;;
68234;SDS011;55052;52.056;5.296;2022-09-03T09:11:27;4.03;;;1.88;;
68234;SDS011;55052;52.056;5.296;2022-09-03T09:19:29;4.68;;;1.60;;
68234;SDS011;55052;52.056;5.296;2022-09-03T09:22:26;4.28;;;1.90;;
68234;SDS011;55052;52.056;5.296;2022-09-03T09:25:14;4.30;;;1.70;;
68234;SDS011;55052;52.056;5.296;2022-09-03T09:27:50;6.10;;;1.70;;
68234;SDS011;55052;52.056;5.296;2022-09-03T09:30:22;3.17;;;1.50;;
68234;SDS011;55052;52.056;5.296;2022-09-03T09:32:48;6.00;;;1.80;;
68234;SDS011;55052;52.056;5.296;2022-09-03T09:35:16;6.95;;;1.63;;
68234;SDS011;55052;52.056;5.296;2022-09-03T09:37:50;5.68;;;1.60;;
68234;SDS011;55052;52.056;5.296;2022-09-03T09:40:26;6.15;;;1.60;;
68234;SDS011;55052;52.056;5.296;2022-09-03T09:43:02;6.70;;;1.58;;
68234;SDS011;55052;52.056;5.296;2022-09-03T09:45:30;6.32;;;1.50;;
68234;SDS011;55052;52.056;5.296;2022-09-03T09:48:00;6.60;;;1.60;;
68234;SDS011;55052;52.056;5.296;2022-09-03T09:50:32;5.13;;;1.50;;
68234;SDS011;55052;52.056;5.296;2022-09-03T09:52:59;6.30;;;1.45;;
68234;SDS011;55052;52.056;5.296;2022-09-03T09:55:29;4.68;;;1.40;;
68234;SDS011;55052;52.056;5.296;2022-09-03T09:58:04;11.60;;;1.50;;
68234;SDS011;55052;52.056;5.296;2022-09-03T10:00:39;6.03;;;1.75;;
68234;SDS011;55052;52.056;5.296;2022-09-03T10:03:09;5.50;;;1.48;;
68234;SDS011;55052;52.056;5.296;2022-09-03T10:05:39;4.25;;;1.50;;
68234;SDS011;55052;52.056;5.296;2022-09-03T10:08:16;4.80;;;1.70;;
68234;SDS011;55052;52.056;5.296;2022-09-03T10:10:45;2.85;;;1.45;;
68234;SDS011;55052;52.056;5.296;2022-09-03T10:13:18;3.65;;;1.63;;
68234;SDS011;55052;52.056;5.296;2022-09-03T10:16:00;3.08;;;1.50;;
68234;SDS011;55052;52.056;5.296;2022-09-03T10:18:41;3.97;;;1.60;;
68234;SDS011;55052;52.056;5.296;2022-09-03T10:21:19;5.63;;;1.60;;
68234;SDS011;55052;52.056;5.296;2022-09-03T10:23:57;3.08;;;1.40;;
68234;SDS011;55052;52.056;5.296;2022-09-03T10:26:32;3.83;;;1.40;;
68234;SDS011;55052;52.056;5.296;2022-09-03T10:29:04;2.60;;;1.40;;
68234;SDS011;55052;52.056;5.296;2022-09-03T10:40:03;5.45;;;1.50;;
68234;SDS011;55052;52.056;5.296;2022-09-03T10:42:42;4.22;;;1.58;;
68234;SDS011;55052;52.056;5.296;2022-09-03T10:45:33;5.75;;;1.60;;
68234;SDS011;55052;52.056;5.296;2022-09-03T10:51:18;5.20;;;1.60;;
68234;SDS011;55052;52.056;5.296;2022-09-03T10:54:14;6.20;;;1.75;;
68234;SDS011;55052;52.056;5.296;2022-09-03T11:07:20;3.83;;;1.40;;
68234;SDS011;55052;52.056;5.296;2022-09-03T11:12:35;3.50;;;1.40;;
68234;SDS011;55052;52.056;5.296;2022-09-03T11:15:22;3.30;;;1.50;;
68234;SDS011;55052;52.056;5.296;2022-09-03T11:18:11;5.10;;;1.52;;
68234;SDS011;55052;52.056;5.296;2022-09-03T11:20:50;4.07;;;1.50;;
68234;SDS011;55052;52.056;5.296;2022-09-03T11:23:20;3.60;;;1.55;;
68234;SDS011;55052;52.056;5.296;2022-09-03T11:28:32;7.72;;;1.45;;
68234;SDS011;55052;52.056;5.296;2022-09-03T11:34:26;3.83;;;1.60;;
68234;SDS011;55052;52.056;5.296;2022-09-03T11:37:04;6.22;;;1.95;;
68234;SDS011;55052;52.056;5.296;2022-09-03T11:39:43;3.47;;;1.40;;
68234;SDS011;55052;52.056;5.296;2022-09-03T11:45:11;7.43;;;1.65;;
68234;SDS011;55052;52.056;5.296;2022-09-03T11:47:45;4.18;;;1.70;;
68234;SDS011;55052;52.056;5.296;2022-09-03T11:52:51;3.67;;;1.70;;
68234;SDS011;55052;52.056;5.296;2022-09-03T11:55:26;4.20;;;1.65;;
68234;SDS011;55052;52.056;5.296;2022-09-03T11:58:12;4.20;;;1.60;;
68234;SDS011;55052;52.056;5.296;2022-09-03T12:00:49;5.70;;;1.88;;
68234;SDS011;55052;52.056;5.296;2022-09-03T12:03:20;3.57;;;1.43;;
68234;SDS011;55052;52.056;5.296;2022-09-03T12:11:45;5.95;;;1.75;;
68234;SDS011;55052;52.056;5.296;2022-09-03T12:14:36;4.18;;;1.63;;
68234;SDS011;55052;52.056;5.296;2022-09-03T12:17:32;2.38;;;1.33;;
68234;SDS011;55052;52.056;5.296;2022-09-03T12:20:39;8.27;;;1.70;;
68234;SDS011;55052;52.056;5.296;2022-09-03T12:23:09;4.28;;;1.63;;
68234;SDS011;55052;52.056;5.296;2022-09-03T12:28:15;4.63;;;1.58;;
68234;SDS011;55052;52.056;5.296;2022-09-03T12:30:46;3.80;;;1.60;;
68234;SDS011;55052;52.056;5.296;2022-09-03T12:33:16;3.03;;;1.60;;
68234;SDS011;55052;52.056;5.296;2022-09-03T12:38:25;5.88;;;2.05;;
68234;SDS011;55052;52.056;5.296;2022-09-03T12:41:21;5.00;;;1.50;;
68234;SDS011;55052;52.056;5.296;2022-09-03T12:43:54;3.80;;;1.70;;
68234;SDS011;55052;52.056;5.296;2022-09-03T12:46:31;2.60;;;1.40;;
68234;SDS011;55052;52.056;5.296;2022-09-03T12:49:03;4.47;;;1.50;;
68234;SDS011;55052;52.056;5.296;2022-09-03T12:51:57;3.63;;;1.50;;
68234;SDS011;55052;52.056;5.296;2022-09-03T12:54:32;3.00;;;1.58;;
68234;SDS011;55052;52.056;5.296;2022-09-03T12:57:04;4.07;;;1.60;;
68234;SDS011;55052;52.056;5.296;2022-09-03T12:59:32;4.20;;;1.50;;
68234;SDS011;55052;52.056;5.296;2022-09-03T13:02:10;9.10;;;1.85;;
68234;SDS011;55052;52.056;5.296;2022-09-03T13:04:43;4.13;;;1.40;;
68234;SDS011;55052;52.056;5.296;2022-09-03T13:07:20;4.85;;;1.70;;
68234;SDS011;55052;52.056;5.296;2022-09-03T13:09:52;6.75;;;1.92;;
68234;SDS011;55052;52.056;5.296;2022-09-03T13:12:33;6.32;;;1.70;;
68234;SDS011;55052;52.056;5.296;2022-09-03T13:15:09;5.20;;;1.90;;
68234;SDS011;55052;52.056;5.296;2022-09-03T13:17:47;3.78;;;1.67;;
68234;SDS011;55052;52.056;5.296;2022-09-03T13:20:38;4.43;;;1.70;;
68234;SDS011;55052;52.056;5.296;2022-09-03T13:25:45;3.65;;;1.40;;
68234;SDS011;55052;52.056;5.296;2022-09-03T13:31:37;3.38;;;1.90;;
68234;SDS011;55052;52.056;5.296;2022-09-03T13:34:19;4.57;;;1.67;;
68234;SDS011;55052;52.056;5.296;2022-09-03T13:37:04;8.57;;;1.88;;
68234;SDS011;55052;52.056;5.296;2022-09-03T13:39:52;5.38;;;1.80;;
68234;SDS011;55052;52.056;5.296;2022-09-03T13:42:26;5.20;;;2.03;;
68234;SDS011;55052;52.056;5.296;2022-09-03T13:48:13;5.95;;;1.85;;
68234;SDS011;55052;52.056;5.296;2022-09-03T13:59:18;5.25;;;1.85;;
68234;SDS011;55052;52.056;5.296;2022-09-03T14:01:57;4.05;;;1.60;;
68234;SDS011;55052;52.056;5.296;2022-09-03T14:05:00;6.70;;;1.80;;
68234;SDS011;55052;52.056;5.296;2022-09-03T14:07:43;3.97;;;1.80;;
68234;SDS011;55052;52.056;5.296;2022-09-03T14:18:48;5.07;;;2.05;;
68234;SDS011;55052;52.056;5.296;2022-09-03T14:21:32;4.47;;;1.50;;
68234;SDS011;55052;52.056;5.296;2022-09-03T14:27:12;3.90;;;1.80;;
68234;SDS011;55052;52.056;5.296;2022-09-03T14:29:52;5.05;;;1.80;;
68234;SDS011;55052;52.056;5.296;2022-09-03T14:35:41;4.57;;;1.98;;
68234;SDS011;55052;52.056;5.296;2022-09-03T14:43:54;3.33;;;1.60;;
68234;SDS011;55052;52.056;5.296;2022-09-03T14:46:49;4.93;;;1.65;;
68234;SDS011;55052;52.056;5.296;2022-09-03T15:05:45;3.30;;;1.70;;
68234;SDS011;55052;52.056;5.296;2022-09-03T15:10:58;4.20;;;1.70;;
68234;SDS011;55052;52.056;5.296;2022-09-03T15:13:32;4.15;;;1.90;;
68234;SDS011;55052;52.056;5.296;2022-09-03T15:18:58;6.18;;;2.00;;
68234;SDS011;55052;52.056;5.296;2022-09-03T15:29:56;5.20;;;2.10;;
68234;SDS011;55052;52.056;5.296;2022-09-03T15:35:30;5.32;;;1.80;;
68234;SDS011;55052;52.056;5.296;2022-09-03T15:43:17;5.97;;;1.80;;
68234;SDS011;55052;52.056;5.296;2022-09-03T15:45:56;7.63;;;1.90;;
68234;SDS011;55052;52.056;5.296;2022-09-03T15:51:19;8.15;;;1.90;;
68234;SDS011;55052;52.056;5.296;2022-09-03T16:04:58;3.92;;;1.85;;
68234;SDS011;55052;52.056;5.296;2022-09-03T16:10:11;4.80;;;1.88;;
68234;SDS011;55052;52.056;5.296;2022-09-03T16:16:05;4.75;;;1.73;;
68234;SDS011;55052;52.056;5.296;2022-09-03T16:21:31;4.93;;;1.90;;
68234;SDS011;55052;52.056;5.296;2022-09-03T16:24:18;4.72;;;1.83;;
68234;SDS011;55052;52.056;5.296;2022-09-03T16:33:13;3.10;;;1.77;;
68234;SDS011;55052;52.056;5.296;2022-09-03T16:41:35;3.75;;;2.00;;
68234;SDS011;55052;52.056;5.296;2022-09-03T16:52:41;5.68;;;1.88;;
68234;SDS011;55052;52.056;5.296;2022-09-03T16:57:58;3.40;;;1.73;;
68234;SDS011;55052;52.056;5.296;2022-09-03T17:06:20;4.88;;;1.80;;
68234;SDS011;55052;52.056;5.296;2022-09-03T17:09:02;4.22;;;1.70;;
68234;SDS011;55052;52.056;5.296;2022-09-03T17:20:24;6.55;;;3.03;;
68234;SDS011;55052;52.056;5.296;2022-09-03T17:28:57;6.00;;;2.42;;
68234;SDS011;55052;52.056;5.296;2022-09-03T17:32:18;4.40;;;2.10;;
68234;SDS011;55052;52.056;5.296;2022-09-03T17:40:25;4.60;;;2.13;;
68234;SDS011;55052;52.056;5.296;2022-09-03T17:48:41;3.90;;;2.10;;
68234;SDS011;55052;52.056;5.296;2022-09-03T17:54:23;5.88;;;2.65;;
68234;SDS011;55052;52.056;5.296;2022-09-03T17:59:41;3.72;;;2.10;;
68234;SDS011;55052;52.056;5.296;2022-09-03T18:02:27;7.13;;;2.30;;
68234;SDS011;55052;52.056;5.296;2022-09-03T18:04:58;7.82;;;2.00;;
68234;SDS011;55052;52.056;5.296;2022-09-03T18:07:32;4.88;;;2.10;;
68234;SDS011;55052;52.056;5.296;2022-09-03T18:10:24;6.03;;;2.25;;
68234;SDS011;55052;52.056;5.296;2022-09-03T18:18:46;4.78;;;2.10;;
68234;SDS011;55052;52.056;5.296;2022-09-03T18:21:21;6.18;;;2.40;;
68234;SDS011;55052;52.056;5.296;2022-09-03T18:27:28;4.85;;;2.15;;
68234;SDS011;55052;52.056;5.296;2022-09-03T18:30:23;5.65;;;2.60;;
68234;SDS011;55052;52.056;5.296;2022-09-03T18:33:12;5.68;;;2.33;;
68234;SDS011;55052;52.056;5.296;2022-09-03T18:36:01;5.32;;;2.05;;
68234;SDS011;55052;52.056;5.296;2022-09-03T18:38:48;8.00;;;2.20;;
68234;SDS011;55052;52.056;5.296;2022-09-03T18:44:51;7.10;;;2.75;;
68234;SDS011;55052;52.056;5.296;2022-09-03T18:51:07;5.18;;;2.80;;
68234;SDS011;55052;52.056;5.296;2022-09-03T18:57:43;7.50;;;2.90;;
68234;SDS011;55052;52.056;5.296;2022-09-03T19:00:48;4.73;;;2.77;;
68234;SDS011;55052;52.056;5.296;2022-09-03T19:04:08;5.35;;;2.80;;
68234;SDS011;55052;52.056;5.296;2022-09-03T19:07:22;8.35;;;2.72;;
68234;SDS011;55052;52.056;5.296;2022-09-03T19:10:33;6.97;;;2.90;;
68234;SDS011;55052;52.056;5.296;2022-09-03T19:13:41;6.05;;;3.13;;
68234;SDS011;55052;52.056;5.296;2022-09-03T19:16:37;7.72;;;2.88;;
68234;SDS011;55052;52.056;5.296;2022-09-03T19:22:40;6.55;;;3.50;;
68234;SDS011;55052;52.056;5.296;2022-09-03T19:25:26;14.10;;;4.35;;
68234;SDS011;55052;52.056;5.296;2022-09-03T19:28:23;11.02;;;4.10;;
68234;SDS011;55052;52.056;5.296;2022-09-03T19:31:23;12.27;;;4.68;;
68234;SDS011;55052;52.056;5.296;2022-09-03T19:37:47;12.45;;;4.80;;
68234;SDS011;55052;52.056;5.296;2022-09-03T19:46:58;9.80;;;4.18;;
68234;SDS011;55052;52.056;5.296;2022-09-03T19:50:04;9.25;;;4.40;;
68234;SDS011;55052;52.056;5.296;2022-09-03T19:53:05;7.15;;;4.38;;
68234;SDS011;55052;52.056;5.296;2022-09-03T19:56:04;9.48;;;4.60;;
68234;SDS011;55052;52.056;5.296;2022-09-03T19:58:55;11.40;;;4.80;;
68234;SDS011;55052;52.056;5.296;2022-09-03T20:01:45;7.45;;;4.68;;
68234;SDS011;55052;52.056;5.296;2022-09-03T20:04:36;6.95;;;4.82;;
68234;SDS011;55052;52.056;5.296;2022-09-03T20:07:28;7.60;;;4.68;;
68234;SDS011;55052;52.056;5.296;2022-09-03T20:10:13;9.07;;;4.82;;
68234;SDS011;55052;52.056;5.296;2022-09-03T20:13:01;9.88;;;5.10;;
68234;SDS011;55052;52.056;5.296;2022-09-03T20:15:46;9.35;;;4.28;;
68234;SDS011;55052;52.056;5.296;2022-09-03T20:34:33;7.88;;;4.68;;
68234;SDS011;55052;52.056;5.296;2022-09-03T20:42:49;10.95;;;9.18;;
68234;SDS011;55052;52.056;5.296;2022-09-03T20:45:36;18.40;;;8.13;;
68234;SDS011;55052;52.056;5.296;2022-09-03T20:48:17;12.68;;;7.43;;
68234;SDS011;55052;52.056;5.296;2022-09-03T20:50:59;11.30;;;6.43;;
68234;SDS011;55052;52.056;5.296;2022-09-03T20:59:07;11.82;;;6.13;;
68234;SDS011;55052;52.056;5.296;2022-09-03T21:04:20;11.30;;;7.88;;
68234;SDS011;55052;52.056;5.296;2022-09-03T21:09:48;12.52;;;6.78;;
68234;SDS011;55052;52.056;5.296;2022-09-03T21:18:09;12.43;;;7.35;;
68234;SDS011;55052;52.056;5.296;2022-09-03T21:20:54;10.68;;;6.97;;
68234;SDS011;55052;52.056;5.296;2022-09-03T21:23:26;10.18;;;5.63;;